sensor_id;sensor_type;location;lat;lon;timestamp;pressure;altitude;pressure_sealevel;temperature;humidity
19005;BME280;9635;52.078;8.648;2023-04-09T00:01:53;101475.00;;;5.22;71.78
19005;BME280;9635;52.078;8.648;2023-04-09T00:06:56;101475.25;;;5.16;71.66
19005;BME280;9635;52.078;8.648;2023-04-09T00:11:59;101477.91;;;5.16;72.03
19005;BME280;9635;52.078;8.648;2023-04-09T00:17:03;101470.78;;;5.16;72.13
19005;BME280;9635;52.078;8.648;2023-04-09T00:22:06;101471.66;;;5.17;71.91
19005;BME280;9635;52.078;8.648;2023-04-09T00:27:09;101470.16;;;5.10;71.89
19005;BME280;9635;52.078;8.648;2023-04-09T00:32:13;101461.25;;;5.11;71.86
19005;BME280;9635;52.078;8.648;2023-04-09T00:37:16;101459.03;;;5.00;71.47
19005;BME280;9635;52.078;8.648;2023-04-09T00:42:19;101454.03;;;4.91;71.73
19005;BME280;9635;52.078;8.648;2023-04-09T00:47:24;101450.00;;;4.80;71.68
19005;BME280;9635;52.078;8.648;2023-04-09T00:52:28;101451.91;;;4.77;71.82
19005;BME280;9635;52.078;8.648;2023-04-09T00:57:31;101444.31;;;4.68;72.04
19005;BME280;9635;52.078;8.648;2023-04-09T01:02:36;101451.31;;;4.70;72.53
19005;BME280;9635;52.078;8.648;2023-04-09T01:07:55;101450.19;;;4.76;72.96
19005;BME280;9635;52.078;8.648;2023-04-09T01:13:07;101438.00;;;4.70;72.98
19005;BME280;9635;52.078;8.648;2023-04-09T01:18:19;101448.75;;;4.67;73.16
19005;BME280;9635;52.078;8.648;2023-04-09T01:23:36;101445.16;;;4.68;73.19
19005;BME280;9635;52.078;8.648;2023-04-09T01:28:48;101452.34;;;4.66;72.94
19005;BME280;9635;52.078;8.648;2023-04-09T01:33:54;101452.78;;;4.55;72.67
19005;BME280;9635;52.078;8.648;2023-04-09T01:38:59;101452.31;;;4.44;72.33
19005;BME280;9635;52.078;8.648;2023-04-09T01:44:04;101448.97;;;4.39;72.30
19005;BME280;9635;52.078;8.648;2023-04-09T01:49:09;101460.66;;;4.35;71.92
19005;BME280;9635;52.078;8.648;2023-04-09T01:54:13;101453.81;;;4.28;71.51
19005;BME280;9635;52.078;8.648;2023-04-09T01:59:18;101456.81;;;4.18;71.43
19005;BME280;9635;52.078;8.648;2023-04-09T02:04:23;101455.53;;;4.05;71.71
19005;BME280;9635;52.078;8.648;2023-04-09T02:09:29;101450.69;;;3.93;71.80
19005;BME280;9635;52.078;8.648;2023-04-09T02:14:34;101456.81;;;3.95;72.32
19005;BME280;9635;52.078;8.648;2023-04-09T02:19:39;101449.16;;;3.86;72.05
19005;BME280;9635;52.078;8.648;2023-04-09T02:24:44;101454.59;;;3.83;71.81
19005;BME280;9635;52.078;8.648;2023-04-09T02:29:49;101452.09;;;3.78;72.03
19005;BME280;9635;52.078;8.648;2023-04-09T02:34:52;101443.31;;;3.76;72.10
19005;BME280;9635;52.078;8.648;2023-04-09T02:39:55;101446.66;;;3.81;72.46
19005;BME280;9635;52.078;8.648;2023-04-09T02:45:00;101442.34;;;3.79;72.24
19005;BME280;9635;52.078;8.648;2023-04-09T02:50:07;101433.66;;;3.73;72.30
19005;BME280;9635;52.078;8.648;2023-04-09T02:55:15;101435.06;;;3.84;72.87
19005;BME280;9635;52.078;8.648;2023-04-09T03:00:20;101431.81;;;3.76;73.04
19005;BME280;9635;52.078;8.648;2023-04-09T03:05:23;101438.13;;;3.73;74.06
19005;BME280;9635;52.078;8.648;2023-04-09T03:10:25;101434.53;;;3.74;74.26
19005;BME280;9635;52.078;8.648;2023-04-09T03:15:30;101439.00;;;3.73;75.08
19005;BME280;9635;52.078;8.648;2023-04-09T03:20:36;101433.19;;;3.62;75.39
19005;BME280;9635;52.078;8.648;2023-04-09T03:25:41;101427.94;;;3.59;75.45
19005;BME280;9635;52.078;8.648;2023-04-09T03:30:51;101428.50;;;3.44;75.54
19005;BME280;9635;52.078;8.648;2023-04-09T03:35:54;101417.91;;;3.42;75.26
19005;BME280;9635;52.078;8.648;2023-04-09T03:41:07;101423.53;;;3.35;75.44
19005;BME280;9635;52.078;8.648;2023-04-09T03:46:12;101411.03;;;3.37;75.54
19005;BME280;9635;52.078;8.648;2023-04-09T03:51:17;101410.41;;;3.55;75.56
19005;BME280;9635;52.078;8.648;2023-04-09T03:56:29;101412.44;;;3.72;75.23
19005;BME280;9635;52.078;8.648;2023-04-09T04:01:33;101408.06;;;3.71;75.26
19005;BME280;9635;52.078;8.648;2023-04-09T04:06:37;101420.06;;;3.81;75.39
19005;BME280;9635;52.078;8.648;2023-04-09T04:11:57;101416.34;;;3.87;75.50
19005;BME280;9635;52.078;8.648;2023-04-09T04:17:16;101408.59;;;3.81;76.11
19005;BME280;9635;52.078;8.648;2023-04-09T04:22:19;101408.06;;;3.71;77.03
19005;BME280;9635;52.078;8.648;2023-04-09T04:27:27;101406.13;;;3.76;77.40
19005;BME280;9635;52.078;8.648;2023-04-09T04:32:33;101418.47;;;3.77;77.75
19005;BME280;9635;52.078;8.648;2023-04-09T04:37:41;101425.63;;;3.75;77.75
19005;BME280;9635;52.078;8.648;2023-04-09T04:42:44;101426.72;;;3.69;78.40
19005;BME280;9635;52.078;8.648;2023-04-09T04:47:51;101421.50;;;3.66;78.58
19005;BME280;9635;52.078;8.648;2023-04-09T04:52:54;101426.56;;;3.74;78.83
19005;BME280;9635;52.078;8.648;2023-04-09T04:58:02;101427.03;;;3.85;78.77
19005;BME280;9635;52.078;8.648;2023-04-09T05:03:15;101430.81;;;3.78;79.04
19005;BME280;9635;52.078;8.648;2023-04-09T05:08:43;101442.50;;;3.74;79.11
19005;BME280;9635;52.078;8.648;2023-04-09T05:13:46;101435.63;;;3.68;79.67
19005;BME280;9635;52.078;8.648;2023-04-09T05:18:51;101435.16;;;3.81;79.15
19005;BME280;9635;52.078;8.648;2023-04-09T05:23:54;101439.47;;;3.85;79.47
19005;BME280;9635;52.078;8.648;2023-04-09T05:28:57;101443.81;;;3.87;79.48
19005;BME280;9635;52.078;8.648;2023-04-09T05:34:02;101447.38;;;3.86;79.22
19005;BME280;9635;52.078;8.648;2023-04-09T05:39:10;101450.22;;;3.82;78.86
19005;BME280;9635;52.078;8.648;2023-04-09T05:44:13;101447.44;;;3.85;78.87
19005;BME280;9635;52.078;8.648;2023-04-09T05:49:18;101448.84;;;3.95;78.60
19005;BME280;9635;52.078;8.648;2023-04-09T05:54:24;101437.28;;;4.20;78.54
19005;BME280;9635;52.078;8.648;2023-04-09T05:59:28;101441.53;;;4.25;77.86
19005;BME280;9635;52.078;8.648;2023-04-09T06:04:32;101430.00;;;4.25;77.26
19005;BME280;9635;52.078;8.648;2023-04-09T06:09:35;101438.25;;;4.40;76.92
19005;BME280;9635;52.078;8.648;2023-04-09T06:14:38;101451.44;;;4.44;76.08
19005;BME280;9635;52.078;8.648;2023-04-09T06:19:42;101454.63;;;4.30;75.66
19005;BME280;9635;52.078;8.648;2023-04-09T06:24:45;101450.53;;;4.45;75.45
19005;BME280;9635;52.078;8.648;2023-04-09T06:29:48;101454.75;;;4.50;74.99
19005;BME280;9635;52.078;8.648;2023-04-09T06:34:52;101453.69;;;4.54;74.77
19005;BME280;9635;52.078;8.648;2023-04-09T06:39:55;101454.50;;;4.56;74.88
19005;BME280;9635;52.078;8.648;2023-04-09T06:45:02;101455.13;;;4.63;74.15
19005;BME280;9635;52.078;8.648;2023-04-09T06:50:10;101464.59;;;4.70;74.20
19005;BME280;9635;52.078;8.648;2023-04-09T06:55:13;101455.09;;;4.87;74.47
19005;BME280;9635;52.078;8.648;2023-04-09T07:00:16;101457.53;;;5.15;74.31
19005;BME280;9635;52.078;8.648;2023-04-09T07:05:20;101465.06;;;5.25;72.96
19005;BME280;9635;52.078;8.648;2023-04-09T07:10:23;101461.31;;;5.52;73.07
19005;BME280;9635;52.078;8.648;2023-04-09T07:15:26;101454.66;;;5.82;72.58
19005;BME280;9635;52.078;8.648;2023-04-09T07:20:30;101457.19;;;5.85;72.00
19005;BME280;9635;52.078;8.648;2023-04-09T07:25:34;101462.69;;;6.01;71.98
19005;BME280;9635;52.078;8.648;2023-04-09T07:30:38;101459.78;;;6.26;71.17
19005;BME280;9635;52.078;8.648;2023-04-09T07:35:43;101468.31;;;6.34;70.92
19005;BME280;9635;52.078;8.648;2023-04-09T07:40:46;101471.34;;;6.65;70.25
19005;BME280;9635;52.078;8.648;2023-04-09T07:45:48;101479.88;;;6.92;69.53
19005;BME280;9635;52.078;8.648;2023-04-09T07:50:53;101469.88;;;7.32;68.15
19005;BME280;9635;52.078;8.648;2023-04-09T07:55:56;101479.41;;;7.72;67.00
19005;BME280;9635;52.078;8.648;2023-04-09T08:00:58;101483.72;;;8.09;65.71
19005;BME280;9635;52.078;8.648;2023-04-09T08:06:03;101483.38;;;8.15;63.15
19005;BME280;9635;52.078;8.648;2023-04-09T08:11:06;101493.38;;;8.94;62.67
19005;BME280;9635;52.078;8.648;2023-04-09T08:16:08;101478.63;;;9.33;60.31
19005;BME280;9635;52.078;8.648;2023-04-09T08:21:13;101464.16;;;9.66;59.97
19005;BME280;9635;52.078;8.648;2023-04-09T08:26:16;101472.34;;;10.23;58.41
19005;BME280;9635;52.078;8.648;2023-04-09T08:31:18;101473.53;;;11.02;57.54
19005;BME280;9635;52.078;8.648;2023-04-09T08:36:23;101464.00;;;12.42;54.52
19005;BME280;9635;52.078;8.648;2023-04-09T08:41:27;101462.78;;;12.58;51.51
19005;BME280;9635;52.078;8.648;2023-04-09T08:46:31;101463.56;;;12.22;52.70
19005;BME280;9635;52.078;8.648;2023-04-09T08:51:35;101460.88;;;12.09;53.99
19005;BME280;9635;52.078;8.648;2023-04-09T08:56:39;101455.47;;;12.60;53.53
19005;BME280;9635;52.078;8.648;2023-04-09T09:01:42;101451.84;;;13.10;51.89
19005;BME280;9635;52.078;8.648;2023-04-09T09:06:48;101452.34;;;13.15;50.22
19005;BME280;9635;52.078;8.648;2023-04-09T09:11:54;101453.91;;;12.69;51.92
19005;BME280;9635;52.078;8.648;2023-04-09T09:17:04;101444.81;;;13.31;50.90
19005;BME280;9635;52.078;8.648;2023-04-09T09:22:10;101446.81;;;13.16;50.17
19005;BME280;9635;52.078;8.648;2023-04-09T09:27:29;101442.69;;;13.94;48.53
19005;BME280;9635;52.078;8.648;2023-04-09T09:32:33;101429.81;;;14.31;48.80
19005;BME280;9635;52.078;8.648;2023-04-09T09:37:37;101423.31;;;14.45;48.03
19005;BME280;9635;52.078;8.648;2023-04-09T09:42:53;101419.81;;;14.88;47.20
19005;BME280;9635;52.078;8.648;2023-04-09T09:47:56;101412.44;;;15.22;46.22
19005;BME280;9635;52.078;8.648;2023-04-09T09:53:03;101410.34;;;15.89;45.09
19005;BME280;9635;52.078;8.648;2023-04-09T09:58:11;101397.03;;;15.34;44.35
19005;BME280;9635;52.078;8.648;2023-04-09T10:03:20;101397.84;;;15.98;43.04
19005;BME280;9635;52.078;8.648;2023-04-09T10:08:27;101402.50;;;16.17;42.25
19005;BME280;9635;52.078;8.648;2023-04-09T10:13:34;101392.31;;;16.90;40.98
19005;BME280;9635;52.078;8.648;2023-04-09T10:18:37;101396.69;;;16.21;40.33
19005;BME280;9635;52.078;8.648;2023-04-09T10:23:44;101386.38;;;16.55;39.03
19005;BME280;9635;52.078;8.648;2023-04-09T10:29:02;101385.50;;;17.15;36.78
19005;BME280;9635;52.078;8.648;2023-04-09T10:34:05;101389.38;;;16.52;35.86
19005;BME280;9635;52.078;8.648;2023-04-09T10:39:13;101382.69;;;15.43;39.38
19005;BME280;9635;52.078;8.648;2023-04-09T10:44:20;101382.69;;;15.64;40.13
19005;BME280;9635;52.078;8.648;2023-04-09T10:49:24;101370.47;;;17.20;35.82
19005;BME280;9635;52.078;8.648;2023-04-09T10:54:40;101362.88;;;17.90;35.22
19005;BME280;9635;52.078;8.648;2023-04-09T10:59:48;101369.25;;;18.46;34.56
19005;BME280;9635;52.078;8.648;2023-04-09T11:05:02;101362.00;;;19.36;31.99
19005;BME280;9635;52.078;8.648;2023-04-09T11:10:11;101351.59;;;20.69;31.12
19005;BME280;9635;52.078;8.648;2023-04-09T11:15:17;101337.25;;;18.76;32.81
19005;BME280;9635;52.078;8.648;2023-04-09T11:20:22;101347.72;;;17.41;35.68
19005;BME280;9635;52.078;8.648;2023-04-09T11:25:29;101329.16;;;16.78;36.13
19005;BME280;9635;52.078;8.648;2023-04-09T11:30:32;101341.81;;;16.39;36.31
19005;BME280;9635;52.078;8.648;2023-04-09T11:35:36;101338.22;;;15.98;36.51
19005;BME280;9635;52.078;8.648;2023-04-09T11:40:41;101344.19;;;15.61;37.34
19005;BME280;9635;52.078;8.648;2023-04-09T11:45:49;101344.06;;;14.88;38.63
19005;BME280;9635;52.078;8.648;2023-04-09T11:50:53;101344.84;;;15.11;38.85
19005;BME280;9635;52.078;8.648;2023-04-09T11:55:57;101340.34;;;15.00;38.68
19005;BME280;9635;52.078;8.648;2023-04-09T12:01:00;101345.59;;;15.55;37.81
19005;BME280;9635;52.078;8.648;2023-04-09T12:06:04;101332.44;;;14.97;39.47
19005;BME280;9635;52.078;8.648;2023-04-09T12:11:10;101343.16;;;14.99;40.94
19005;BME280;9635;52.078;8.648;2023-04-09T12:16:13;101348.72;;;14.86;40.62
19005;BME280;9635;52.078;8.648;2023-04-09T12:21:23;101344.06;;;14.88;40.48
19005;BME280;9635;52.078;8.648;2023-04-09T12:26:27;101339.16;;;15.77;38.29
19005;BME280;9635;52.078;8.648;2023-04-09T12:31:30;101333.72;;;16.77;36.70
19005;BME280;9635;52.078;8.648;2023-04-09T12:36:33;101336.69;;;16.45;37.05
19005;BME280;9635;52.078;8.648;2023-04-09T12:41:38;101331.47;;;17.31;35.71
19005;BME280;9635;52.078;8.648;2023-04-09T12:46:41;101321.16;;;17.25;35.18
19005;BME280;9635;52.078;8.648;2023-04-09T12:51:44;101325.78;;;16.26;36.34
19005;BME280;9635;52.078;8.648;2023-04-09T12:56:48;101319.75;;;15.82;37.77
19005;BME280;9635;52.078;8.648;2023-04-09T13:01:51;101318.59;;;17.14;37.82
19005;BME280;9635;52.078;8.648;2023-04-09T13:06:54;101312.38;;;20.78;31.44
19005;BME280;9635;52.078;8.648;2023-04-09T13:11:58;101312.25;;;19.34;32.06
19005;BME280;9635;52.078;8.648;2023-04-09T13:17:01;101312.88;;;16.97;35.16
19005;BME280;9635;52.078;8.648;2023-04-09T13:22:04;101316.16;;;16.02;36.77
19005;BME280;9635;52.078;8.648;2023-04-09T13:27:10;101313.03;;;15.76;37.67
19005;BME280;9635;52.078;8.648;2023-04-09T13:32:13;101314.31;;;15.41;38.50
19005;BME280;9635;52.078;8.648;2023-04-09T13:37:16;101313.97;;;15.02;38.23
19005;BME280;9635;52.078;8.648;2023-04-09T13:42:20;101309.81;;;14.77;40.17
19005;BME280;9635;52.078;8.648;2023-04-09T13:47:24;101306.53;;;15.16;40.10
19005;BME280;9635;52.078;8.648;2023-04-09T13:52:28;101306.00;;;15.22;39.29
19005;BME280;9635;52.078;8.648;2023-04-09T13:57:32;101296.31;;;15.71;38.97
19005;BME280;9635;52.078;8.648;2023-04-09T14:02:35;101288.75;;;17.23;36.75
19005;BME280;9635;52.078;8.648;2023-04-09T14:07:38;101276.47;;;16.90;35.43
19005;BME280;9635;52.078;8.648;2023-04-09T14:12:42;101274.91;;;16.49;36.08
19005;BME280;9635;52.078;8.648;2023-04-09T14:17:45;101289.72;;;15.95;37.65
19005;BME280;9635;52.078;8.648;2023-04-09T14:22:47;101275.59;;;15.60;38.41
19005;BME280;9635;52.078;8.648;2023-04-09T14:27:52;101272.19;;;15.58;38.47
19005;BME280;9635;52.078;8.648;2023-04-09T14:32:54;101269.97;;;16.23;37.88
19005;BME280;9635;52.078;8.648;2023-04-09T14:37:57;101254.91;;;16.50;36.91
19005;BME280;9635;52.078;8.648;2023-04-09T14:43:03;101255.25;;;17.42;34.44
19005;BME280;9635;52.078;8.648;2023-04-09T14:48:06;101257.94;;;16.56;36.09
19005;BME280;9635;52.078;8.648;2023-04-09T14:53:09;101259.56;;;16.19;36.92
19005;BME280;9635;52.078;8.648;2023-04-09T14:58:14;101264.66;;;15.62;37.87
19005;BME280;9635;52.078;8.648;2023-04-09T15:03:17;101251.63;;;16.36;36.93
19005;BME280;9635;52.078;8.648;2023-04-09T15:08:20;101249.50;;;15.90;37.20
19005;BME280;9635;52.078;8.648;2023-04-09T15:13:25;101246.69;;;16.21;37.00
19005;BME280;9635;52.078;8.648;2023-04-09T15:18:28;101228.25;;;15.85;37.91
19005;BME280;9635;52.078;8.648;2023-04-09T15:23:31;101236.66;;;14.79;38.38
19005;BME280;9635;52.078;8.648;2023-04-09T15:28:37;101247.91;;;14.63;40.07
19005;BME280;9635;52.078;8.648;2023-04-09T15:33:41;101247.19;;;14.06;40.49
19005;BME280;9635;52.078;8.648;2023-04-09T15:38:44;101236.78;;;14.02;41.02
19005;BME280;9635;52.078;8.648;2023-04-09T15:43:48;101252.69;;;14.27;40.67
19005;BME280;9635;52.078;8.648;2023-04-09T15:48:51;101245.09;;;14.21;40.83
19005;BME280;9635;52.078;8.648;2023-04-09T15:53:54;101235.81;;;14.03;40.07
19005;BME280;9635;52.078;8.648;2023-04-09T15:58:58;101241.59;;;13.76;41.26
19005;BME280;9635;52.078;8.648;2023-04-09T16:04:03;101231.28;;;13.81;40.97
19005;BME280;9635;52.078;8.648;2023-04-09T16:09:06;101227.63;;;13.70;41.27
19005;BME280;9635;52.078;8.648;2023-04-09T16:14:10;101225.91;;;13.69;41.91
19005;BME280;9635;52.078;8.648;2023-04-09T16:19:13;101226.50;;;13.84;42.26
19005;BME280;9635;52.078;8.648;2023-04-09T16:24:17;101231.91;;;13.73;42.43
19005;BME280;9635;52.078;8.648;2023-04-09T16:29:21;101222.00;;;13.40;42.75
19005;BME280;9635;52.078;8.648;2023-04-09T16:34:24;101226.88;;;13.35;43.30
19005;BME280;9635;52.078;8.648;2023-04-09T16:39:27;101231.50;;;13.21;43.31
19005;BME280;9635;52.078;8.648;2023-04-09T16:44:31;101234.94;;;13.12;42.89
19005;BME280;9635;52.078;8.648;2023-04-09T16:49:34;101236.25;;;12.95;43.14
19005;BME280;9635;52.078;8.648;2023-04-09T16:54:37;101231.00;;;13.16;43.14
19005;BME280;9635;52.078;8.648;2023-04-09T16:59:41;101228.31;;;13.16;42.64
19005;BME280;9635;52.078;8.648;2023-04-09T17:04:45;101222.31;;;13.24;42.86
19005;BME280;9635;52.078;8.648;2023-04-09T17:09:48;101216.91;;;13.13;43.06
19005;BME280;9635;52.078;8.648;2023-04-09T17:14:53;101227.19;;;12.96;43.11
19005;BME280;9635;52.078;8.648;2023-04-09T17:19:56;101223.44;;;12.75;43.68
19005;BME280;9635;52.078;8.648;2023-04-09T17:25:00;101210.75;;;12.53;44.31
19005;BME280;9635;52.078;8.648;2023-04-09T17:30:06;101213.41;;;12.42;44.07
19005;BME280;9635;52.078;8.648;2023-04-09T17:35:09;101210.47;;;12.45;44.05
19005;BME280;9635;52.078;8.648;2023-04-09T17:40:13;101209.03;;;12.28;44.29
19005;BME280;9635;52.078;8.648;2023-04-09T17:45:20;101208.06;;;12.05;44.73
19005;BME280;9635;52.078;8.648;2023-04-09T17:50:23;101192.97;;;11.78;45.10
19005;BME280;9635;52.078;8.648;2023-04-09T17:55:26;101197.97;;;11.59;45.22
19005;BME280;9635;52.078;8.648;2023-04-09T18:00:30;101198.44;;;11.40;45.54
19005;BME280;9635;52.078;8.648;2023-04-09T18:05:34;101194.19;;;11.24;45.67
19005;BME280;9635;52.078;8.648;2023-04-09T18:10:37;101191.00;;;11.05;46.11
19005;BME280;9635;52.078;8.648;2023-04-09T18:15:42;101190.91;;;10.94;46.16
19005;BME280;9635;52.078;8.648;2023-04-09T18:20:45;101193.38;;;10.84;46.30
19005;BME280;9635;52.078;8.648;2023-04-09T18:25:50;101192.59;;;10.69;46.69
19005;BME280;9635;52.078;8.648;2023-04-09T18:30:54;101192.38;;;10.59;46.93
19005;BME280;9635;52.078;8.648;2023-04-09T18:35:58;101199.25;;;10.51;47.21
19005;BME280;9635;52.078;8.648;2023-04-09T18:41:02;101203.03;;;10.21;48.02
19005;BME280;9635;52.078;8.648;2023-04-09T18:46:06;101210.25;;;10.06;48.11
19005;BME280;9635;52.078;8.648;2023-04-09T18:51:09;101207.56;;;10.06;48.18
19005;BME280;9635;52.078;8.648;2023-04-09T18:56:12;101205.63;;;9.96;48.51
19005;BME280;9635;52.078;8.648;2023-04-09T19:01:16;101211.66;;;9.85;48.83
19005;BME280;9635;52.078;8.648;2023-04-09T19:06:20;101215.47;;;9.81;49.01
19005;BME280;9635;52.078;8.648;2023-04-09T19:11:24;101221.81;;;9.80;48.93
19005;BME280;9635;52.078;8.648;2023-04-09T19:16:28;101220.41;;;9.74;48.97
19005;BME280;9635;52.078;8.648;2023-04-09T19:21:31;101226.66;;;9.60;48.95
19005;BME280;9635;52.078;8.648;2023-04-09T19:26:34;101229.69;;;9.54;49.06
19005;BME280;9635;52.078;8.648;2023-04-09T19:31:38;101219.94;;;9.53;48.92
19005;BME280;9635;52.078;8.648;2023-04-09T19:36:41;101233.81;;;9.60;48.95
19005;BME280;9635;52.078;8.648;2023-04-09T19:41:44;101228.63;;;9.57;49.18
19005;BME280;9635;52.078;8.648;2023-04-09T19:46:48;101232.38;;;9.54;49.04
19005;BME280;9635;52.078;8.648;2023-04-09T19:51:51;101235.44;;;9.48;49.27
19005;BME280;9635;52.078;8.648;2023-04-09T19:56:54;101233.75;;;9.47;49.36
19005;BME280;9635;52.078;8.648;2023-04-09T20:01:58;101237.38;;;9.46;49.59
19005;BME280;9635;52.078;8.648;2023-04-09T20:07:01;101237.28;;;9.33;49.36
19005;BME280;9635;52.078;8.648;2023-04-09T20:12:04;101223.50;;;9.11;49.91
19005;BME280;9635;52.078;8.648;2023-04-09T20:17:10;101223.56;;;8.95;50.41
19005;BME280;9635;52.078;8.648;2023-04-09T20:22:13;101223.94;;;8.89;50.91
19005;BME280;9635;52.078;8.648;2023-04-09T20:27:16;101235.13;;;8.81;51.33
19005;BME280;9635;52.078;8.648;2023-04-09T20:32:21;101223.81;;;8.76;51.45
19005;BME280;9635;52.078;8.648;2023-04-09T20:37:24;101221.78;;;8.65;51.74
19005;BME280;9635;52.078;8.648;2023-04-09T20:42:26;101210.47;;;8.60;51.77
19005;BME280;9635;52.078;8.648;2023-04-09T20:47:30;101215.94;;;8.58;52.20
19005;BME280;9635;52.078;8.648;2023-04-09T20:52:33;101207.31;;;8.53;52.43
19005;BME280;9635;52.078;8.648;2023-04-09T20:57:37;101200.31;;;8.51;52.60
19005;BME280;9635;52.078;8.648;2023-04-09T21:02:41;101203.25;;;8.46;53.28
19005;BME280;9635;52.078;8.648;2023-04-09T21:07:45;101193.16;;;8.35;53.26
19005;BME280;9635;52.078;8.648;2023-04-09T21:12:47;101184.63;;;8.29;53.24
19005;BME280;9635;52.078;8.648;2023-04-09T21:17:52;101195.78;;;8.21;53.08
19005;BME280;9635;52.078;8.648;2023-04-09T21:22:55;101195.84;;;8.20;53.26
19005;BME280;9635;52.078;8.648;2023-04-09T21:27:57;101184.41;;;8.17;53.44
19005;BME280;9635;52.078;8.648;2023-04-09T21:33:03;101193.72;;;8.10;53.67
19005;BME280;9635;52.078;8.648;2023-04-09T21:38:06;101196.06;;;8.01;53.87
19005;BME280;9635;52.078;8.648;2023-04-09T21:43:09;101192.28;;;7.89;54.01
19005;BME280;9635;52.078;8.648;2023-04-09T21:48:13;101195.84;;;7.73;54.39
19005;BME280;9635;52.078;8.648;2023-04-09T21:53:16;101190.75;;;7.69;54.93
19005;BME280;9635;52.078;8.648;2023-04-09T21:58:19;101176.94;;;7.61;55.25
19005;BME280;9635;52.078;8.648;2023-04-09T22:03:23;101174.00;;;7.49;55.58
19005;BME280;9635;52.078;8.648;2023-04-09T22:08:27;101170.53;;;7.47;56.00
19005;BME280;9635;52.078;8.648;2023-04-09T22:13:30;101170.09;;;7.39;56.52
19005;BME280;9635;52.078;8.648;2023-04-09T22:18:35;101163.72;;;7.42;56.57
19005;BME280;9635;52.078;8.648;2023-04-09T22:23:38;101159.75;;;7.33;57.07
19005;BME280;9635;52.078;8.648;2023-04-09T22:28:41;101160.16;;;7.25;57.37
19005;BME280;9635;52.078;8.648;2023-04-09T22:33:45;101160.34;;;7.22;57.89
19005;BME280;9635;52.078;8.648;2023-04-09T22:38:48;101163.13;;;7.37;58.12
19005;BME280;9635;52.078;8.648;2023-04-09T22:43:53;101168.69;;;7.32;58.16
19005;BME280;9635;52.078;8.648;2023-04-09T22:48:58;101171.19;;;7.19;58.37
19005;BME280;9635;52.078;8.648;2023-04-09T22:54:06;101184.28;;;7.08;58.71
19005;BME280;9635;52.078;8.648;2023-04-09T22:59:09;101180.13;;;7.02;59.05
19005;BME280;9635;52.078;8.648;2023-04-09T23:04:13;101171.66;;;6.94;59.20
19005;BME280;9635;52.078;8.648;2023-04-09T23:09:18;101164.97;;;7.03;59.63
19005;BME280;9635;52.078;8.648;2023-04-09T23:14:21;101161.34;;;7.04;59.36
19005;BME280;9635;52.078;8.648;2023-04-09T23:19:25;101166.16;;;6.97;59.33
19005;BME280;9635;52.078;8.648;2023-04-09T23:24:28;101166.56;;;6.90;59.51
19005;BME280;9635;52.078;8.648;2023-04-09T23:29:31;101167.88;;;6.81;60.16
19005;BME280;9635;52.078;8.648;2023-04-09T23:34:35;101160.28;;;6.73;60.46
19005;BME280;9635;52.078;8.648;2023-04-09T23:39:38;101164.19;;;6.66;60.66
19005;BME280;9635;52.078;8.648;2023-04-09T23:44:41;101158.09;;;6.64;60.73
19005;BME280;9635;52.078;8.648;2023-04-09T23:49:45;101162.25;;;6.70;60.66
19005;BME280;9635;52.078;8.648;2023-04-09T23:54:48;101168.59;;;6.67;60.55
19005;BME280;9635;52.078;8.648;2023-04-09T23:59:51;101164.63;;;6.58;60.96
